sensor_id;sensor_type;location;lat;lon;timestamp;P1;durP1;ratioP1;P2;durP2;ratioP2
5058;SDS011;2548;52.050;11.036;2023-05-14T00:00:51;10.82;;;6.13;;
5058;SDS011;2548;52.050;11.036;2023-05-14T00:03:20;7.43;;;6.72;;
5058;SDS011;2548;52.050;11.036;2023-05-14T00:05:48;7.13;;;6.35;;
5058;SDS011;2548;52.050;11.036;2023-05-14T00:08:15;12.07;;;7.18;;
5058;SDS011;2548;52.050;11.036;2023-05-14T00:10:42;6.95;;;6.35;;
5058;SDS011;2548;52.050;11.036;2023-05-14T00:13:10;6.38;;;5.95;;
5058;SDS011;2548;52.050;11.036;2023-05-14T00:15:37;6.88;;;6.30;;
5058;SDS011;2548;52.050;11.036;2023-05-14T00:18:05;6.97;;;6.47;;
5058;SDS011;2548;52.050;11.036;2023-05-14T00:20:38;7.43;;;6.82;;
5058;SDS011;2548;52.050;11.036;2023-05-14T00:23:05;11.80;;;7.90;;
5058;SDS011;2548;52.050;11.036;2023-05-14T00:25:33;7.10;;;6.40;;
5058;SDS011;2548;52.050;11.036;2023-05-14T00:28:00;8.00;;;7.22;;
5058;SDS011;2548;52.050;11.036;2023-05-14T00:30:27;9.15;;;7.70;;
5058;SDS011;2548;52.050;11.036;2023-05-14T00:32:55;7.97;;;7.28;;
5058;SDS011;2548;52.050;11.036;2023-05-14T00:35:22;7.70;;;7.05;;
5058;SDS011;2548;52.050;11.036;2023-05-14T00:37:51;21.25;;;8.45;;
5058;SDS011;2548;52.050;11.036;2023-05-14T00:40:19;7.15;;;6.60;;
5058;SDS011;2548;52.050;11.036;2023-05-14T00:42:48;8.85;;;8.07;;
5058;SDS011;2548;52.050;11.036;2023-05-14T00:45:15;19.83;;;7.60;;
5058;SDS011;2548;52.050;11.036;2023-05-14T00:47:43;7.82;;;7.18;;
5058;SDS011;2548;52.050;11.036;2023-05-14T00:50:10;8.63;;;7.93;;
5058;SDS011;2548;52.050;11.036;2023-05-14T00:52:40;9.00;;;8.30;;
5058;SDS011;2548;52.050;11.036;2023-05-14T00:55:09;10.63;;;7.80;;
5058;SDS011;2548;52.050;11.036;2023-05-14T00:57:41;8.57;;;7.78;;
5058;SDS011;2548;52.050;11.036;2023-05-14T01:00:09;9.23;;;8.32;;
5058;SDS011;2548;52.050;11.036;2023-05-14T01:02:37;8.93;;;8.10;;
5058;SDS011;2548;52.050;11.036;2023-05-14T01:05:04;8.15;;;7.50;;
5058;SDS011;2548;52.050;11.036;2023-05-14T01:07:36;11.55;;;7.88;;
5058;SDS011;2548;52.050;11.036;2023-05-14T01:10:14;10.20;;;7.65;;
5058;SDS011;2548;52.050;11.036;2023-05-14T01:12:50;8.75;;;7.93;;
5058;SDS011;2548;52.050;11.036;2023-05-14T01:15:27;9.52;;;8.63;;
5058;SDS011;2548;52.050;11.036;2023-05-14T01:17:59;9.82;;;8.68;;
5058;SDS011;2548;52.050;11.036;2023-05-14T01:20:30;8.63;;;7.93;;
5058;SDS011;2548;52.050;11.036;2023-05-14T01:22:59;8.77;;;7.97;;
5058;SDS011;2548;52.050;11.036;2023-05-14T01:25:27;10.27;;;9.27;;
5058;SDS011;2548;52.050;11.036;2023-05-14T01:27:56;9.38;;;8.52;;
5058;SDS011;2548;52.050;11.036;2023-05-14T01:30:30;10.15;;;9.20;;
5058;SDS011;2548;52.050;11.036;2023-05-14T01:33:01;9.18;;;8.40;;
5058;SDS011;2548;52.050;11.036;2023-05-14T01:35:31;11.02;;;9.43;;
5058;SDS011;2548;52.050;11.036;2023-05-14T01:38:02;9.05;;;8.18;;
5058;SDS011;2548;52.050;11.036;2023-05-14T01:40:32;9.27;;;8.35;;
5058;SDS011;2548;52.050;11.036;2023-05-14T01:43:02;8.27;;;7.55;;
5058;SDS011;2548;52.050;11.036;2023-05-14T01:45:30;9.43;;;8.63;;
5058;SDS011;2548;52.050;11.036;2023-05-14T01:47:57;8.88;;;7.75;;
5058;SDS011;2548;52.050;11.036;2023-05-14T01:50:25;8.48;;;7.68;;
5058;SDS011;2548;52.050;11.036;2023-05-14T01:52:53;7.93;;;7.32;;
5058;SDS011;2548;52.050;11.036;2023-05-14T01:55:22;7.95;;;7.35;;
5058;SDS011;2548;52.050;11.036;2023-05-14T01:57:50;10.70;;;8.82;;
5058;SDS011;2548;52.050;11.036;2023-05-14T02:00:18;9.10;;;8.25;;
5058;SDS011;2548;52.050;11.036;2023-05-14T02:02:45;9.00;;;7.97;;
5058;SDS011;2548;52.050;11.036;2023-05-14T02:05:13;9.05;;;8.25;;
5058;SDS011;2548;52.050;11.036;2023-05-14T02:07:40;8.13;;;7.47;;
5058;SDS011;2548;52.050;11.036;2023-05-14T02:10:08;8.82;;;7.97;;
5058;SDS011;2548;52.050;11.036;2023-05-14T02:12:37;9.05;;;8.15;;
5058;SDS011;2548;52.050;11.036;2023-05-14T02:15:05;8.93;;;8.13;;
5058;SDS011;2548;52.050;11.036;2023-05-14T02:17:35;9.10;;;8.18;;
5058;SDS011;2548;52.050;11.036;2023-05-14T02:20:03;8.35;;;7.70;;
5058;SDS011;2548;52.050;11.036;2023-05-14T02:22:31;9.40;;;7.88;;
5058;SDS011;2548;52.050;11.036;2023-05-14T02:24:59;9.10;;;8.35;;
5058;SDS011;2548;52.050;11.036;2023-05-14T02:27:27;8.60;;;7.70;;
5058;SDS011;2548;52.050;11.036;2023-05-14T02:29:55;8.27;;;7.68;;
5058;SDS011;2548;52.050;11.036;2023-05-14T02:32:25;7.93;;;7.30;;
5058;SDS011;2548;52.050;11.036;2023-05-14T02:34:53;7.93;;;7.28;;
5058;SDS011;2548;52.050;11.036;2023-05-14T02:37:20;14.50;;;8.30;;
5058;SDS011;2548;52.050;11.036;2023-05-14T02:39:48;8.65;;;7.22;;
5058;SDS011;2548;52.050;11.036;2023-05-14T02:42:15;7.28;;;6.63;;
5058;SDS011;2548;52.050;11.036;2023-05-14T02:44:42;6.90;;;6.40;;
5058;SDS011;2548;52.050;11.036;2023-05-14T02:47:11;7.55;;;6.85;;
5058;SDS011;2548;52.050;11.036;2023-05-14T02:49:39;7.43;;;6.80;;
5058;SDS011;2548;52.050;11.036;2023-05-14T02:52:06;6.90;;;6.20;;
5058;SDS011;2548;52.050;11.036;2023-05-14T02:54:34;7.13;;;6.57;;
5058;SDS011;2548;52.050;11.036;2023-05-14T02:57:01;8.45;;;7.72;;
5058;SDS011;2548;52.050;11.036;2023-05-14T02:59:29;10.00;;;6.50;;
5058;SDS011;2548;52.050;11.036;2023-05-14T03:01:57;7.97;;;7.22;;
5058;SDS011;2548;52.050;11.036;2023-05-14T03:04:26;6.82;;;6.32;;
5058;SDS011;2548;52.050;11.036;2023-05-14T03:06:53;6.00;;;5.60;;
5058;SDS011;2548;52.050;11.036;2023-05-14T03:09:21;5.97;;;5.45;;
5058;SDS011;2548;52.050;11.036;2023-05-14T03:11:48;5.35;;;5.05;;
5058;SDS011;2548;52.050;11.036;2023-05-14T03:14:16;10.18;;;6.18;;
5058;SDS011;2548;52.050;11.036;2023-05-14T03:16:43;7.68;;;7.07;;
5058;SDS011;2548;52.050;11.036;2023-05-14T03:19:11;6.60;;;5.72;;
5058;SDS011;2548;52.050;11.036;2023-05-14T03:21:40;7.53;;;6.82;;
5058;SDS011;2548;52.050;11.036;2023-05-14T03:24:08;7.40;;;6.80;;
5058;SDS011;2548;52.050;11.036;2023-05-14T03:26:35;6.15;;;5.65;;
5058;SDS011;2548;52.050;11.036;2023-05-14T03:29:03;7.72;;;6.93;;
5058;SDS011;2548;52.050;11.036;2023-05-14T03:31:30;8.13;;;7.40;;
5058;SDS011;2548;52.050;11.036;2023-05-14T03:33:59;7.10;;;6.50;;
5058;SDS011;2548;52.050;11.036;2023-05-14T03:36:26;7.15;;;6.57;;
5058;SDS011;2548;52.050;11.036;2023-05-14T03:38:55;8.13;;;7.50;;
5058;SDS011;2548;52.050;11.036;2023-05-14T03:41:22;10.25;;;8.18;;
5058;SDS011;2548;52.050;11.036;2023-05-14T03:43:50;9.40;;;8.60;;
5058;SDS011;2548;52.050;11.036;2023-05-14T03:46:18;9.50;;;8.70;;
5058;SDS011;2548;52.050;11.036;2023-05-14T03:48:46;9.25;;;8.30;;
5058;SDS011;2548;52.050;11.036;2023-05-14T03:51:13;10.45;;;9.23;;
5058;SDS011;2548;52.050;11.036;2023-05-14T03:53:41;9.07;;;8.32;;
5058;SDS011;2548;52.050;11.036;2023-05-14T03:56:10;9.63;;;8.60;;
5058;SDS011;2548;52.050;11.036;2023-05-14T03:58:37;8.98;;;8.27;;
5058;SDS011;2548;52.050;11.036;2023-05-14T04:01:05;12.85;;;8.60;;
5058;SDS011;2548;52.050;11.036;2023-05-14T04:03:32;9.73;;;8.63;;
5058;SDS011;2548;52.050;11.036;2023-05-14T04:06:00;12.70;;;8.48;;
5058;SDS011;2548;52.050;11.036;2023-05-14T04:08:27;15.25;;;8.60;;
5058;SDS011;2548;52.050;11.036;2023-05-14T04:10:55;9.00;;;8.20;;
5058;SDS011;2548;52.050;11.036;2023-05-14T04:13:24;9.38;;;8.48;;
5058;SDS011;2548;52.050;11.036;2023-05-14T04:15:53;12.18;;;9.00;;
5058;SDS011;2548;52.050;11.036;2023-05-14T04:18:20;9.52;;;8.73;;
5058;SDS011;2548;52.050;11.036;2023-05-14T04:20:48;7.75;;;7.05;;
5058;SDS011;2548;52.050;11.036;2023-05-14T04:23:15;6.47;;;5.97;;
5058;SDS011;2548;52.050;11.036;2023-05-14T04:25:43;5.30;;;4.97;;
5058;SDS011;2548;52.050;11.036;2023-05-14T04:28:10;6.65;;;6.15;;
5058;SDS011;2548;52.050;11.036;2023-05-14T04:30:39;7.20;;;6.68;;
5058;SDS011;2548;52.050;11.036;2023-05-14T04:33:06;6.72;;;6.30;;
5058;SDS011;2548;52.050;11.036;2023-05-14T04:35:34;7.43;;;6.35;;
5058;SDS011;2548;52.050;11.036;2023-05-14T04:38:01;8.00;;;6.85;;
5058;SDS011;2548;52.050;11.036;2023-05-14T04:40:29;7.43;;;7.00;;
5058;SDS011;2548;52.050;11.036;2023-05-14T04:42:56;8.98;;;8.10;;
5058;SDS011;2548;52.050;11.036;2023-05-14T04:45:24;7.03;;;6.32;;
5058;SDS011;2548;52.050;11.036;2023-05-14T04:47:53;9.05;;;8.25;;
5058;SDS011;2548;52.050;11.036;2023-05-14T04:50:20;7.60;;;6.90;;
5058;SDS011;2548;52.050;11.036;2023-05-14T04:52:48;8.85;;;8.23;;
5058;SDS011;2548;52.050;11.036;2023-05-14T04:55:15;8.02;;;7.28;;
5058;SDS011;2548;52.050;11.036;2023-05-14T04:57:43;9.25;;;7.80;;
5058;SDS011;2548;52.050;11.036;2023-05-14T05:00:11;10.20;;;9.30;;
5058;SDS011;2548;52.050;11.036;2023-05-14T05:02:39;9.48;;;8.52;;
5058;SDS011;2548;52.050;11.036;2023-05-14T05:05:08;12.55;;;9.60;;
5058;SDS011;2548;52.050;11.036;2023-05-14T05:07:36;10.23;;;9.25;;
5058;SDS011;2548;52.050;11.036;2023-05-14T05:10:03;11.40;;;9.35;;
5058;SDS011;2548;52.050;11.036;2023-05-14T05:12:31;11.45;;;10.40;;
5058;SDS011;2548;52.050;11.036;2023-05-14T05:14:59;10.35;;;9.35;;
5058;SDS011;2548;52.050;11.036;2023-05-14T05:17:28;11.93;;;10.05;;
5058;SDS011;2548;52.050;11.036;2023-05-14T05:19:55;11.50;;;10.40;;
5058;SDS011;2548;52.050;11.036;2023-05-14T05:22:24;11.45;;;10.35;;
5058;SDS011;2548;52.050;11.036;2023-05-14T05:24:51;11.07;;;10.18;;
5058;SDS011;2548;52.050;11.036;2023-05-14T05:27:19;15.00;;;10.20;;
5058;SDS011;2548;52.050;11.036;2023-05-14T05:29:47;12.65;;;11.38;;
5058;SDS011;2548;52.050;11.036;2023-05-14T05:32:14;12.77;;;11.45;;
5058;SDS011;2548;52.050;11.036;2023-05-14T05:34:42;10.55;;;9.35;;
5058;SDS011;2548;52.050;11.036;2023-05-14T05:37:10;10.48;;;9.55;;
5058;SDS011;2548;52.050;11.036;2023-05-14T05:39:40;11.68;;;9.45;;
5058;SDS011;2548;52.050;11.036;2023-05-14T05:42:08;13.27;;;9.88;;
5058;SDS011;2548;52.050;11.036;2023-05-14T05:44:35;10.30;;;9.40;;
5058;SDS011;2548;52.050;11.036;2023-05-14T05:47:03;12.48;;;11.13;;
5058;SDS011;2548;52.050;11.036;2023-05-14T05:49:30;12.68;;;11.32;;
5058;SDS011;2548;52.050;11.036;2023-05-14T05:51:58;13.20;;;11.98;;
5058;SDS011;2548;52.050;11.036;2023-05-14T05:54:25;12.82;;;11.55;;
5058;SDS011;2548;52.050;11.036;2023-05-14T05:56:54;10.85;;;9.95;;
5058;SDS011;2548;52.050;11.036;2023-05-14T05:59:21;15.30;;;11.93;;
5058;SDS011;2548;52.050;11.036;2023-05-14T06:01:49;13.45;;;11.23;;
5058;SDS011;2548;52.050;11.036;2023-05-14T06:04:17;14.20;;;11.98;;
5058;SDS011;2548;52.050;11.036;2023-05-14T06:06:44;13.15;;;10.73;;
5058;SDS011;2548;52.050;11.036;2023-05-14T06:09:12;14.75;;;12.27;;
5058;SDS011;2548;52.050;11.036;2023-05-14T06:11:39;13.02;;;11.30;;
5058;SDS011;2548;52.050;11.036;2023-05-14T06:14:08;12.35;;;10.82;;
5058;SDS011;2548;52.050;11.036;2023-05-14T06:16:36;16.30;;;11.32;;
5058;SDS011;2548;52.050;11.036;2023-05-14T06:19:03;13.05;;;11.70;;
5058;SDS011;2548;52.050;11.036;2023-05-14T06:21:31;12.88;;;11.68;;
5058;SDS011;2548;52.050;11.036;2023-05-14T06:23:58;12.75;;;11.55;;
5058;SDS011;2548;52.050;11.036;2023-05-14T06:26:25;11.93;;;10.82;;
5058;SDS011;2548;52.050;11.036;2023-05-14T06:28:53;12.65;;;11.43;;
5058;SDS011;2548;52.050;11.036;2023-05-14T06:31:22;14.40;;;12.77;;
5058;SDS011;2548;52.050;11.036;2023-05-14T06:33:49;12.63;;;11.50;;
5058;SDS011;2548;52.050;11.036;2023-05-14T06:36:16;13.25;;;11.98;;
5058;SDS011;2548;52.050;11.036;2023-05-14T06:38:44;13.48;;;12.20;;
5058;SDS011;2548;52.050;11.036;2023-05-14T06:41:11;13.20;;;11.90;;
5058;SDS011;2548;52.050;11.036;2023-05-14T06:43:39;12.23;;;10.98;;
5058;SDS011;2548;52.050;11.036;2023-05-14T06:46:06;11.52;;;10.52;;
5058;SDS011;2548;52.050;11.036;2023-05-14T06:48:35;12.27;;;11.10;;
5058;SDS011;2548;52.050;11.036;2023-05-14T06:51:02;12.32;;;11.13;;
5058;SDS011;2548;52.050;11.036;2023-05-14T06:53:31;13.80;;;12.45;;
5058;SDS011;2548;52.050;11.036;2023-05-14T06:55:58;14.48;;;11.43;;
5058;SDS011;2548;52.050;11.036;2023-05-14T06:58:26;13.55;;;10.80;;
5058;SDS011;2548;52.050;11.036;2023-05-14T07:00:53;13.45;;;11.27;;
5058;SDS011;2548;52.050;11.036;2023-05-14T07:03:20;12.95;;;11.75;;
5058;SDS011;2548;52.050;11.036;2023-05-14T07:05:49;11.70;;;10.70;;
5058;SDS011;2548;52.050;11.036;2023-05-14T07:08:17;13.73;;;12.43;;
5058;SDS011;2548;52.050;11.036;2023-05-14T07:10:44;15.27;;;10.65;;
5058;SDS011;2548;52.050;11.036;2023-05-14T07:13:11;12.52;;;11.43;;
5058;SDS011;2548;52.050;11.036;2023-05-14T07:15:39;12.80;;;10.50;;
5058;SDS011;2548;52.050;11.036;2023-05-14T07:18:06;11.98;;;10.90;;
5058;SDS011;2548;52.050;11.036;2023-05-14T07:20:34;15.15;;;10.65;;
5058;SDS011;2548;52.050;11.036;2023-05-14T07:23:03;11.43;;;10.40;;
5058;SDS011;2548;52.050;11.036;2023-05-14T07:25:30;16.13;;;10.68;;
5058;SDS011;2548;52.050;11.036;2023-05-14T07:27:58;11.68;;;10.30;;
5058;SDS011;2548;52.050;11.036;2023-05-14T07:30:25;11.13;;;10.13;;
5058;SDS011;2548;52.050;11.036;2023-05-14T07:32:53;11.65;;;10.65;;
5058;SDS011;2548;52.050;11.036;2023-05-14T07:35:20;13.02;;;11.77;;
5058;SDS011;2548;52.050;11.036;2023-05-14T07:37:48;12.95;;;11.77;;
5058;SDS011;2548;52.050;11.036;2023-05-14T07:40:17;10.43;;;9.35;;
5058;SDS011;2548;52.050;11.036;2023-05-14T07:42:45;10.98;;;9.85;;
5058;SDS011;2548;52.050;11.036;2023-05-14T07:45:12;11.25;;;10.15;;
5058;SDS011;2548;52.050;11.036;2023-05-14T07:47:40;12.40;;;10.77;;
5058;SDS011;2548;52.050;11.036;2023-05-14T07:50:07;10.80;;;9.82;;
5058;SDS011;2548;52.050;11.036;2023-05-14T07:52:35;11.20;;;10.20;;
5058;SDS011;2548;52.050;11.036;2023-05-14T07:55:04;11.88;;;10.55;;
5058;SDS011;2548;52.050;11.036;2023-05-14T07:57:33;9.80;;;8.93;;
5058;SDS011;2548;52.050;11.036;2023-05-14T08:00:00;11.93;;;10.23;;
5058;SDS011;2548;52.050;11.036;2023-05-14T08:02:38;10.80;;;9.45;;
5058;SDS011;2548;52.050;11.036;2023-05-14T08:05:07;10.80;;;9.80;;
5058;SDS011;2548;52.050;11.036;2023-05-14T08:07:35;12.95;;;10.15;;
5058;SDS011;2548;52.050;11.036;2023-05-14T08:10:02;14.73;;;9.50;;
5058;SDS011;2548;52.050;11.036;2023-05-14T08:12:31;11.88;;;9.52;;
5058;SDS011;2548;52.050;11.036;2023-05-14T08:15:00;9.63;;;8.83;;
5058;SDS011;2548;52.050;11.036;2023-05-14T08:17:28;12.77;;;9.33;;
5058;SDS011;2548;52.050;11.036;2023-05-14T08:19:55;11.95;;;10.80;;
5058;SDS011;2548;52.050;11.036;2023-05-14T08:22:23;9.40;;;8.70;;
5058;SDS011;2548;52.050;11.036;2023-05-14T08:24:50;9.50;;;8.70;;
5058;SDS011;2548;52.050;11.036;2023-05-14T08:27:18;9.80;;;8.90;;
5058;SDS011;2548;52.050;11.036;2023-05-14T08:29:47;9.18;;;8.48;;
5058;SDS011;2548;52.050;11.036;2023-05-14T08:32:14;9.90;;;8.63;;
5058;SDS011;2548;52.050;11.036;2023-05-14T08:34:42;9.50;;;8.80;;
5058;SDS011;2548;52.050;11.036;2023-05-14T08:37:09;11.13;;;9.40;;
5058;SDS011;2548;52.050;11.036;2023-05-14T08:39:37;11.53;;;8.33;;
5058;SDS011;2548;52.050;11.036;2023-05-14T08:42:05;9.63;;;8.83;;
5058;SDS011;2548;52.050;11.036;2023-05-14T08:44:35;9.63;;;8.83;;
5058;SDS011;2548;52.050;11.036;2023-05-14T08:47:06;13.33;;;10.83;;
5058;SDS011;2548;52.050;11.036;2023-05-14T08:49:37;10.40;;;8.60;;
5058;SDS011;2548;52.050;11.036;2023-05-14T08:52:07;10.53;;;9.50;;
5058;SDS011;2548;52.050;11.036;2023-05-14T08:54:35;8.50;;;7.70;;
5058;SDS011;2548;52.050;11.036;2023-05-14T08:57:03;9.07;;;8.17;;
5058;SDS011;2548;52.050;11.036;2023-05-14T08:59:31;8.90;;;8.10;;
5058;SDS011;2548;52.050;11.036;2023-05-14T09:02:00;8.05;;;7.25;;
5058;SDS011;2548;52.050;11.036;2023-05-14T09:04:30;8.43;;;7.47;;
5058;SDS011;2548;52.050;11.036;2023-05-14T09:06:59;7.50;;;6.90;;
5058;SDS011;2548;52.050;11.036;2023-05-14T09:09:28;13.80;;;7.70;;
5058;SDS011;2548;52.050;11.036;2023-05-14T09:11:56;6.67;;;5.40;;
5058;SDS011;2548;52.050;11.036;2023-05-14T09:14:23;7.87;;;7.07;;
5058;SDS011;2548;52.050;11.036;2023-05-14T09:16:51;6.87;;;6.37;;
5058;SDS011;2548;52.050;11.036;2023-05-14T09:19:19;7.10;;;6.50;;
5058;SDS011;2548;52.050;11.036;2023-05-14T09:21:48;7.33;;;6.50;;
5058;SDS011;2548;52.050;11.036;2023-05-14T09:24:19;6.63;;;6.13;;
5058;SDS011;2548;52.050;11.036;2023-05-14T09:26:48;7.47;;;6.77;;
5058;SDS011;2548;52.050;11.036;2023-05-14T09:29:17;8.13;;;7.43;;
5058;SDS011;2548;52.050;11.036;2023-05-14T09:31:45;9.27;;;7.40;;
5058;SDS011;2548;52.050;11.036;2023-05-14T09:34:17;8.83;;;7.93;;
5058;SDS011;2548;52.050;11.036;2023-05-14T09:36:51;8.00;;;7.30;;
5058;SDS011;2548;52.050;11.036;2023-05-14T09:39:22;9.30;;;7.70;;
5058;SDS011;2548;52.050;11.036;2023-05-14T09:41:49;11.57;;;7.40;;
5058;SDS011;2548;52.050;11.036;2023-05-14T09:44:17;11.00;;;6.80;;
5058;SDS011;2548;52.050;11.036;2023-05-14T09:46:45;7.13;;;6.53;;
5058;SDS011;2548;52.050;11.036;2023-05-14T09:49:13;6.63;;;6.13;;
5058;SDS011;2548;52.050;11.036;2023-05-14T09:51:41;13.40;;;6.50;;
5058;SDS011;2548;52.050;11.036;2023-05-14T09:54:10;7.60;;;6.80;;
5058;SDS011;2548;52.050;11.036;2023-05-14T09:56:37;6.00;;;5.50;;
5058;SDS011;2548;52.050;11.036;2023-05-14T09:59:05;10.50;;;6.23;;
5058;SDS011;2548;52.050;11.036;2023-05-14T10:01:32;5.70;;;5.27;;
5058;SDS011;2548;52.050;11.036;2023-05-14T10:04:01;8.53;;;6.47;;
5058;SDS011;2548;52.050;11.036;2023-05-14T10:06:30;8.83;;;5.43;;
5058;SDS011;2548;52.050;11.036;2023-05-14T10:09:03;7.60;;;6.37;;
5058;SDS011;2548;52.050;11.036;2023-05-14T10:11:33;9.80;;;6.73;;
5058;SDS011;2548;52.050;11.036;2023-05-14T10:14:05;6.27;;;5.60;;
5058;SDS011;2548;52.050;11.036;2023-05-14T10:16:36;6.30;;;4.60;;
5058;SDS011;2548;52.050;11.036;2023-05-14T10:19:07;6.27;;;5.73;;
5058;SDS011;2548;52.050;11.036;2023-05-14T10:21:35;5.37;;;5.07;;
5058;SDS011;2548;52.050;11.036;2023-05-14T10:24:04;6.30;;;5.70;;
5058;SDS011;2548;52.050;11.036;2023-05-14T10:26:35;5.50;;;5.03;;
5058;SDS011;2548;52.050;11.036;2023-05-14T10:29:05;5.67;;;5.10;;
5058;SDS011;2548;52.050;11.036;2023-05-14T10:31:43;7.00;;;4.60;;
5058;SDS011;2548;52.050;11.036;2023-05-14T10:34:31;7.90;;;5.27;;
5058;SDS011;2548;52.050;11.036;2023-05-14T10:37:02;6.30;;;5.63;;
5058;SDS011;2548;52.050;11.036;2023-05-14T10:42:20;5.13;;;4.73;;
5058;SDS011;2548;52.050;11.036;2023-05-14T10:44:52;5.63;;;5.13;;
5058;SDS011;2548;52.050;11.036;2023-05-14T10:47:23;5.00;;;4.53;;
5058;SDS011;2548;52.050;11.036;2023-05-14T10:49:52;6.43;;;4.63;;
5058;SDS011;2548;52.050;11.036;2023-05-14T10:52:21;12.13;;;4.90;;
5058;SDS011;2548;52.050;11.036;2023-05-14T10:54:50;5.10;;;4.80;;
5058;SDS011;2548;52.050;11.036;2023-05-14T10:57:21;7.83;;;5.03;;
5058;SDS011;2548;52.050;11.036;2023-05-14T10:59:50;5.50;;;5.10;;
5058;SDS011;2548;52.050;11.036;2023-05-14T11:02:20;7.73;;;5.23;;
5058;SDS011;2548;52.050;11.036;2023-05-14T11:04:53;5.97;;;5.23;;
5058;SDS011;2548;52.050;11.036;2023-05-14T11:07:23;5.23;;;4.80;;
5058;SDS011;2548;52.050;11.036;2023-05-14T11:09:56;5.70;;;5.30;;
5058;SDS011;2548;52.050;11.036;2023-05-14T11:12:28;6.30;;;5.37;;
5058;SDS011;2548;52.050;11.036;2023-05-14T11:14:56;6.63;;;5.13;;
5058;SDS011;2548;52.050;11.036;2023-05-14T11:17:25;5.80;;;4.77;;
5058;SDS011;2548;52.050;11.036;2023-05-14T11:19:53;4.73;;;4.43;;
5058;SDS011;2548;52.050;11.036;2023-05-14T11:22:21;6.57;;;5.20;;
5058;SDS011;2548;52.050;11.036;2023-05-14T11:24:49;8.30;;;5.27;;
5058;SDS011;2548;52.050;11.036;2023-05-14T11:27:16;5.60;;;5.20;;
5058;SDS011;2548;52.050;11.036;2023-05-14T11:29:46;5.87;;;5.23;;
5058;SDS011;2548;52.050;11.036;2023-05-14T11:32:15;7.70;;;5.13;;
5058;SDS011;2548;52.050;11.036;2023-05-14T11:34:43;9.03;;;6.77;;
5058;SDS011;2548;52.050;11.036;2023-05-14T11:37:11;9.63;;;6.03;;
5058;SDS011;2548;52.050;11.036;2023-05-14T11:39:45;8.13;;;6.63;;
5058;SDS011;2548;52.050;11.036;2023-05-14T11:42:13;8.00;;;7.20;;
5058;SDS011;2548;52.050;11.036;2023-05-14T11:44:43;6.27;;;5.70;;
5058;SDS011;2548;52.050;11.036;2023-05-14T11:47:13;6.93;;;6.23;;
5058;SDS011;2548;52.050;11.036;2023-05-14T11:49:44;8.70;;;7.73;;
5058;SDS011;2548;52.050;11.036;2023-05-14T11:52:12;7.20;;;6.57;;
5058;SDS011;2548;52.050;11.036;2023-05-14T11:54:41;11.53;;;6.77;;
5058;SDS011;2548;52.050;11.036;2023-05-14T11:57:10;6.90;;;6.30;;
5058;SDS011;2548;52.050;11.036;2023-05-14T11:59:38;7.33;;;6.57;;
5058;SDS011;2548;52.050;11.036;2023-05-14T12:02:08;10.90;;;6.07;;
5058;SDS011;2548;52.050;11.036;2023-05-14T12:04:36;8.47;;;5.80;;
5058;SDS011;2548;52.050;11.036;2023-05-14T12:07:06;6.60;;;5.97;;
5058;SDS011;2548;52.050;11.036;2023-05-14T12:09:35;6.63;;;6.13;;
5058;SDS011;2548;52.050;11.036;2023-05-14T12:12:07;6.47;;;5.83;;
5058;SDS011;2548;52.050;11.036;2023-05-14T12:14:36;6.03;;;5.37;;
5058;SDS011;2548;52.050;11.036;2023-05-14T12:17:10;6.63;;;6.13;;
5058;SDS011;2548;52.050;11.036;2023-05-14T12:19:39;7.33;;;5.13;;
5058;SDS011;2548;52.050;11.036;2023-05-14T12:22:07;5.37;;;4.90;;
5058;SDS011;2548;52.050;11.036;2023-05-14T12:24:35;6.37;;;5.87;;
5058;SDS011;2548;52.050;11.036;2023-05-14T12:27:04;6.90;;;6.03;;
5058;SDS011;2548;52.050;11.036;2023-05-14T12:29:34;6.87;;;5.00;;
5058;SDS011;2548;52.050;11.036;2023-05-14T12:32:06;5.63;;;5.13;;
5058;SDS011;2548;52.050;11.036;2023-05-14T12:34:36;8.07;;;5.20;;
5058;SDS011;2548;52.050;11.036;2023-05-14T12:37:04;5.17;;;4.50;;
5058;SDS011;2548;52.050;11.036;2023-05-14T12:39:32;7.43;;;5.80;;
5058;SDS011;2548;52.050;11.036;2023-05-14T12:42:00;4.90;;;4.57;;
5058;SDS011;2548;52.050;11.036;2023-05-14T12:44:28;8.10;;;5.10;;
5058;SDS011;2548;52.050;11.036;2023-05-14T12:46:55;5.37;;;4.73;;
5058;SDS011;2548;52.050;11.036;2023-05-14T12:49:23;4.73;;;4.43;;
5058;SDS011;2548;52.050;11.036;2023-05-14T12:51:52;5.57;;;4.77;;
5058;SDS011;2548;52.050;11.036;2023-05-14T12:54:19;5.57;;;5.10;;
5058;SDS011;2548;52.050;11.036;2023-05-14T12:56:47;3.83;;;3.53;;
5058;SDS011;2548;52.050;11.036;2023-05-14T12:59:14;4.17;;;3.97;;
5058;SDS011;2548;52.050;11.036;2023-05-14T13:01:42;4.27;;;3.90;;
5058;SDS011;2548;52.050;11.036;2023-05-14T13:04:09;3.47;;;3.27;;
5058;SDS011;2548;52.050;11.036;2023-05-14T13:06:38;4.20;;;3.90;;
5058;SDS011;2548;52.050;11.036;2023-05-14T13:09:07;7.80;;;3.17;;
5058;SDS011;2548;52.050;11.036;2023-05-14T13:11:34;4.10;;;3.90;;
5058;SDS011;2548;52.050;11.036;2023-05-14T13:14:02;3.77;;;3.50;;
5058;SDS011;2548;52.050;11.036;2023-05-14T13:16:29;3.97;;;2.93;;
5058;SDS011;2548;52.050;11.036;2023-05-14T13:18:57;3.53;;;3.03;;
5058;SDS011;2548;52.050;11.036;2023-05-14T13:21:24;4.50;;;3.10;;
5058;SDS011;2548;52.050;11.036;2023-05-14T13:23:51;4.73;;;4.27;;
5058;SDS011;2548;52.050;11.036;2023-05-14T13:26:20;3.80;;;3.50;;
5058;SDS011;2548;52.050;11.036;2023-05-14T13:28:51;8.60;;;3.20;;
5058;SDS011;2548;52.050;11.036;2023-05-14T13:31:18;4.00;;;3.60;;
5058;SDS011;2548;52.050;11.036;2023-05-14T13:33:45;5.10;;;3.80;;
5058;SDS011;2548;52.050;11.036;2023-05-14T13:36:13;3.40;;;3.10;;
5058;SDS011;2548;52.050;11.036;2023-05-14T13:38:41;3.97;;;3.57;;
5058;SDS011;2548;52.050;11.036;2023-05-14T13:41:09;7.00;;;3.97;;
5058;SDS011;2548;52.050;11.036;2023-05-14T13:43:38;3.60;;;3.40;;
5058;SDS011;2548;52.050;11.036;2023-05-14T13:46:05;8.07;;;3.80;;
5058;SDS011;2548;52.050;11.036;2023-05-14T13:48:33;3.53;;;3.30;;
5058;SDS011;2548;52.050;11.036;2023-05-14T13:51:01;3.90;;;3.50;;
5058;SDS011;2548;52.050;11.036;2023-05-14T13:53:29;3.80;;;3.50;;
5058;SDS011;2548;52.050;11.036;2023-05-14T13:55:56;5.23;;;3.20;;
5058;SDS011;2548;52.050;11.036;2023-05-14T13:58:26;4.53;;;3.40;;
5058;SDS011;2548;52.050;11.036;2023-05-14T14:00:55;3.43;;;2.93;;
5058;SDS011;2548;52.050;11.036;2023-05-14T14:03:22;6.90;;;3.37;;
5058;SDS011;2548;52.050;11.036;2023-05-14T14:05:50;4.07;;;3.77;;
5058;SDS011;2548;52.050;11.036;2023-05-14T14:08:18;3.73;;;3.50;;
5058;SDS011;2548;52.050;11.036;2023-05-14T14:10:46;3.77;;;3.43;;
5058;SDS011;2548;52.050;11.036;2023-05-14T14:13:13;11.47;;;3.67;;
5058;SDS011;2548;52.050;11.036;2023-05-14T14:15:41;3.33;;;3.20;;
5058;SDS011;2548;52.050;11.036;2023-05-14T14:18:10;5.20;;;3.20;;
5058;SDS011;2548;52.050;11.036;2023-05-14T14:20:37;3.67;;;3.37;;
5058;SDS011;2548;52.050;11.036;2023-05-14T14:23:05;3.90;;;3.60;;
5058;SDS011;2548;52.050;11.036;2023-05-14T14:25:33;3.47;;;3.17;;
5058;SDS011;2548;52.050;11.036;2023-05-14T14:28:00;4.30;;;4.00;;
5058;SDS011;2548;52.050;11.036;2023-05-14T14:30:31;3.50;;;3.40;;
5058;SDS011;2548;52.050;11.036;2023-05-14T14:32:59;4.00;;;3.50;;
5058;SDS011;2548;52.050;11.036;2023-05-14T14:35:28;5.80;;;3.30;;
5058;SDS011;2548;52.050;11.036;2023-05-14T14:37:58;2.93;;;2.73;;
5058;SDS011;2548;52.050;11.036;2023-05-14T14:40:28;3.53;;;2.30;;
5058;SDS011;2548;52.050;11.036;2023-05-14T14:42:56;6.30;;;2.80;;
5058;SDS011;2548;52.050;11.036;2023-05-14T14:45:28;10.67;;;3.30;;
5058;SDS011;2548;52.050;11.036;2023-05-14T14:50:57;3.53;;;2.73;;
5058;SDS011;2548;52.050;11.036;2023-05-14T14:53:32;7.87;;;3.20;;
5058;SDS011;2548;52.050;11.036;2023-05-14T14:56:03;3.20;;;3.00;;
5058;SDS011;2548;52.050;11.036;2023-05-14T14:58:31;4.00;;;3.70;;
5058;SDS011;2548;52.050;11.036;2023-05-14T15:00:59;5.80;;;4.00;;
5058;SDS011;2548;52.050;11.036;2023-05-14T15:03:27;4.20;;;3.80;;
5058;SDS011;2548;52.050;11.036;2023-05-14T15:05:54;10.97;;;3.53;;
5058;SDS011;2548;52.050;11.036;2023-05-14T15:08:24;3.60;;;3.30;;